Time;durP1;ratioP1;P1;durP2;ratioP2;P2;SDS_P1;SDS_P2;PMS_P1;PMS_P2;Temp;Humidity;BMP_temperature;BMP_pressure;BME280_temperature;BME280_humidity;BME280_pressure;Samples;Min_cycle;Max_cycle;Signal;HPM_P1;HPM_P2
2022/03/21 00:02:11;;;;;;;19.17;12.43;;;9.80;75.60;;;;;;4917188;29;20083;-46
2022/03/21 00:04:37;;;;;;;19.88;12.60;;;9.80;75.50;;;;;;4915795;29;20020;-44
2022/03/21 00:07:02;;;;;;;16.35;12.77;;;9.90;75.10;;;;;;4916862;29;20377;-46
2022/03/21 00:09:28;;;;;;;16.60;11.75;;;9.90;74.90;;;;;;4916645;29;20099;-46
2022/03/21 00:11:53;;;;;;;16.00;12.00;;;9.80;75.60;;;;;;4916873;29;20086;-46
2022/03/21 00:14:19;;;;;;;18.40;12.48;;;9.80;75.10;;;;;;4915889;29;20032;-51
2022/03/21 00:16:46;;;;;;;19.58;13.18;;;9.80;74.80;;;;;;4916806;29;20037;-48
2022/03/21 00:19:11;;;;;;;19.58;13.57;;;9.90;74.70;;;;;;4915735;29;20503;-48
2022/03/21 00:21:37;;;;;;;21.13;14.30;;;9.90;74.60;;;;;;4917103;29;20045;-46
2022/03/21 00:24:03;;;;;;;16.80;12.10;;;10.00;74.60;;;;;;4916941;29;20072;-46
2022/03/21 00:26:29;;;;;;;16.73;12.05;;;9.90;74.50;;;;;;4916305;29;20476;-45
2022/03/21 00:28:55;;;;;;;17.90;11.95;;;9.90;74.50;;;;;;4916454;29;20032;-47
2022/03/21 00:31:20;;;;;;;18.60;13.35;;;9.80;75.10;;;;;;4916758;29;20050;-48
2022/03/21 00:33:46;;;;;;;16.95;13.15;;;9.80;74.90;;;;;;4916579;29;20068;-48
2022/03/21 00:36:12;;;;;;;20.70;13.38;;;9.70;74.90;;;;;;4916615;29;20062;-44
2022/03/21 00:38:37;;;;;;;16.10;12.43;;;9.60;74.90;;;;;;4915957;29;20024;-48
2022/03/21 00:41:05;;;;;;;21.15;13.32;;;9.60;74.90;;;;;;4916372;29;20024;-42
2022/03/21 00:43:31;;;;;;;18.55;12.40;;;9.50;75.00;;;;;;4916813;29;20469;-46
2022/03/21 00:45:57;;;;;;;20.25;13.45;;;9.40;74.90;;;;;;4916211;29;20027;-44
2022/03/21 00:48:24;;;;;;;20.25;12.18;;;9.30;75.20;;;;;;4915983;29;20542;-50
2022/03/21 00:50:50;;;;;;;17.20;12.20;;;9.20;75.40;;;;;;4915851;29;20032;-46
2022/03/21 00:53:17;;;;;;;18.02;12.00;;;9.20;75.40;;;;;;4914802;29;20580;-44
2022/03/21 00:55:42;;;;;;;22.33;12.80;;;9.20;75.70;;;;;;4916033;29;20047;-46
2022/03/21 00:58:08;;;;;;;20.63;13.90;;;9.20;75.70;;;;;;4915696;29;20032;-46
2022/03/21 01:00:34;;;;;;;15.77;11.77;;;9.10;76.00;;;;;;4915712;29;20032;-46
2022/03/21 01:03:01;;;;;;;18.52;12.90;;;9.10;75.40;;;;;;4916186;29;20024;-48
2022/03/21 01:05:28;;;;;;;19.85;12.85;;;9.10;75.50;;;;;;4916039;29;20483;-45
2022/03/21 01:07:54;;;;;;;16.98;12.05;;;9.10;75.40;;;;;;4915555;29;20218;-46
2022/03/21 01:10:21;;;;;;;19.90;12.25;;;9.10;75.50;;;;;;4916103;29;20032;-44
2022/03/21 01:12:47;;;;;;;20.73;13.35;;;9.10;75.90;;;;;;4915832;29;20028;-48
2022/03/21 01:15:15;;;;;;;18.55;12.98;;;9.00;76.10;;;;;;4916102;29;20040;-43
2022/03/21 01:17:45;;;;;;;21.25;13.48;;;8.90;76.00;;;;;;4918528;29;20385;-47
2022/03/21 01:20:12;;;;;;;20.95;12.13;;;8.90;76.20;;;;;;4916148;29;20035;-49
2022/03/21 01:22:38;;;;;;;24.25;13.25;;;8.90;76.00;;;;;;4915444;29;20035;-44
2022/03/21 01:25:04;;;;;;;20.80;12.98;;;8.90;76.20;;;;;;4915447;29;20501;-44
2022/03/21 01:27:29;;;;;;;18.13;13.05;;;8.80;76.40;;;;;;4915252;29;20079;-44
2022/03/21 01:29:55;;;;;;;18.83;12.63;;;8.80;76.70;;;;;;4915275;29;20036;-44
2022/03/21 01:32:21;;;;;;;16.25;12.13;;;8.70;76.90;;;;;;4915600;29;20039;-44
2022/03/21 01:34:47;;;;;;;16.95;12.15;;;8.60;77.60;;;;;;4915637;29;20484;-45
2022/03/21 01:37:12;;;;;;;26.75;15.70;;;8.60;77.00;;;;;;4915058;29;20439;-47
2022/03/21 01:39:38;;;;;;;20.92;13.57;;;8.60;76.80;;;;;;4915497;29;20074;-45
2022/03/21 01:42:04;;;;;;;20.15;13.60;;;8.60;77.10;;;;;;4915392;29;20032;-42
2022/03/21 01:44:30;;;;;;;16.70;12.05;;;8.50;77.20;;;;;;4915368;29;20025;-45
2022/03/21 01:46:55;;;;;;;23.45;12.90;;;8.50;77.00;;;;;;4915014;29;20051;-48
2022/03/21 01:49:21;;;;;;;17.98;12.55;;;8.50;77.10;;;;;;4915388;29;20033;-43
2022/03/21 01:51:47;;;;;;;16.67;11.93;;;8.50;77.00;;;;;;4915312;29;20100;-46
2022/03/21 01:56:58;;;;;;;20.27;13.18;;;8.50;77.10;;;;;;4915049;29;20044;-45
2022/03/21 01:59:24;;;;;;;19.05;12.15;;;8.50;77.00;;;;;;4915090;29;20032;-45
2022/03/21 02:01:50;;;;;;;18.55;12.63;;;8.40;77.20;;;;;;4914115;29;20068;-45
2022/03/21 02:04:15;;;;;;;19.70;12.93;;;8.30;77.30;;;;;;4915227;29;20040;-45
2022/03/21 02:06:45;;;;;;;16.10;11.63;;;8.40;77.40;;;;;;4915322;29;20028;-45
2022/03/21 02:09:11;;;;;;;19.08;11.52;;;8.20;77.50;;;;;;4915024;29;20080;-48
2022/03/21 02:11:38;;;;;;;19.52;11.15;;;8.20;78.40;;;;;;4915279;29;20048;-43
2022/03/21 02:14:05;;;;;;;19.30;12.43;;;8.20;77.80;;;;;;4915057;29;20032;-45
2022/03/21 02:16:33;;;;;;;17.65;12.40;;;8.20;77.50;;;;;;4915333;29;20384;-45
2022/03/21 02:19:01;;;;;;;17.45;12.20;;;8.20;77.80;;;;;;4914757;29;20028;-42
2022/03/21 02:21:47;;;;;;;19.50;13.48;;;8.20;77.70;;;;;;4915139;29;20040;-48
2022/03/21 02:24:36;;;;;;;19.08;12.60;;;8.20;77.60;;;;;;4914967;29;20484;-44
2022/03/21 02:27:02;;;;;;;21.35;12.82;;;8.10;77.50;;;;;;4914673;29;20072;-45
2022/03/21 02:29:29;;;;;;;15.93;11.52;;;8.20;77.40;;;;;;4915100;29;20036;-46
2022/03/21 02:31:55;;;;;;;20.13;11.98;;;8.10;77.40;;;;;;4915531;29;20406;-45
2022/03/21 02:34:24;;;;;;;17.52;11.60;;;8.10;77.30;;;;;;4914948;29;20476;-45
2022/03/21 02:36:56;;;;;;;15.75;11.77;;;8.10;77.20;;;;;;4914971;29;20433;-46
2022/03/21 02:39:22;;;;;;;14.45;11.60;;;8.20;77.10;;;;;;4918519;29;20119;-44
2022/03/21 02:41:49;;;;;;;17.30;11.10;;;8.20;76.70;;;;;;4918624;29;20051;-42
2022/03/21 02:44:14;;;;;;;17.92;12.50;;;8.20;76.80;;;;;;4918468;29;20028;-48
2022/03/21 02:46:39;;;;;;;21.95;13.35;;;8.20;76.80;;;;;;4918375;29;20440;-45
2022/03/21 02:49:06;;;;;;;20.13;12.20;;;8.10;77.00;;;;;;4918570;29;20084;-45
2022/03/21 02:51:36;;;;;;;14.77;10.65;;;8.10;77.30;;;;;;4918447;29;20024;-45
2022/03/21 02:54:02;;;;;;;19.10;12.30;;;8.00;77.40;;;;;;4917354;29;20145;-45
2022/03/21 02:56:28;;;;;;;16.75;10.90;;;7.90;77.60;;;;;;4918263;29;20063;-47
2022/03/21 02:58:54;;;;;;;21.60;11.70;;;7.90;77.80;;;;;;4946253;23;20043;-45
2022/03/21 03:01:20;;;;;;;18.40;12.13;;;7.80;77.80;;;;;;4937384;29;20040;-47
2022/03/21 03:03:45;;;;;;;16.88;11.23;;;7.80;77.80;;;;;;4937271;29;20036;-45
2022/03/21 03:06:12;;;;;;;19.92;12.77;;;7.70;77.60;;;;;;4937105;29;20095;-45
2022/03/21 03:08:39;;;;;;;20.42;11.18;;;7.70;77.60;;;;;;4930279;29;20091;-46
2022/03/21 03:11:05;;;;;;;15.48;11.15;;;7.70;77.60;;;;;;4918200;29;20428;-47
2022/03/21 03:13:31;;;;;;;17.70;11.20;;;7.80;77.60;;;;;;4918126;29;20103;-49
2022/03/21 03:15:56;;;;;;;16.40;11.77;;;7.80;77.30;;;;;;4917963;29;20023;-46
2022/03/21 03:18:22;;;;;;;20.48;12.13;;;7.90;77.10;;;;;;4918059;29;20035;-47
2022/03/21 03:20:53;;;;;;;18.83;11.65;;;7.80;77.10;;;;;;4917899;29;20347;-47
2022/03/21 03:23:21;;;;;;;17.02;12.10;;;7.80;77.10;;;;;;4918241;29;20510;-47
2022/03/21 03:25:48;;;;;;;18.40;12.70;;;7.80;77.10;;;;;;4917765;29;20025;-46
2022/03/21 03:28:14;;;;;;;16.30;11.80;;;7.70;77.20;;;;;;4917296;29;20024;-46
2022/03/21 03:30:40;;;;;;;19.40;11.73;;;7.70;77.30;;;;;;4917952;29;20043;-46
2022/03/21 03:33:10;;;;;;;21.00;13.10;;;7.60;77.60;;;;;;4917848;29;20107;-45
2022/03/21 03:35:35;;;;;;;20.88;13.07;;;7.60;77.70;;;;;;4917668;29;20035;-46
2022/03/21 03:38:02;;;;;;;16.95;11.52;;;7.60;77.80;;;;;;4916133;29;20488;-47
2022/03/21 03:40:28;;;;;;;17.15;12.52;;;7.60;78.00;;;;;;4917804;29;20040;-48
2022/03/21 03:42:53;;;;;;;18.33;11.75;;;7.50;78.20;;;;;;4917471;29;20023;-47
2022/03/21 03:45:19;;;;;;;25.65;12.02;;;7.50;78.30;;;;;;4917554;29;20024;-47
2022/03/21 03:47:45;;;;;;;16.85;11.93;;;7.40;78.70;;;;;;4916944;29;20067;-44
2022/03/21 03:50:11;;;;;;;19.23;12.80;;;7.40;78.60;;;;;;4917403;29;20060;-46
2022/03/21 03:52:36;;;;;;;17.90;11.80;;;7.30;79.00;;;;;;4917482;29;20024;-44
2022/03/21 03:55:02;;;;;;;18.67;11.10;;;7.20;79.10;;;;;;4917352;29;20100;-45
2022/03/21 03:57:27;;;;;;;20.13;11.95;;;7.20;79.40;;;;;;4916885;29;20075;-47
2022/03/21 03:59:54;;;;;;;16.27;11.77;;;7.10;79.50;;;;;;4917181;29;20044;-47
2022/03/21 04:02:19;;;;;;;18.13;12.32;;;7.10;79.60;;;;;;4917988;29;20032;-45
2022/03/21 04:04:45;;;;;;;18.83;13.38;;;7.10;79.80;;;;;;4918049;29;20044;-46
2022/03/21 04:07:10;;;;;;;16.77;11.55;;;7.10;79.80;;;;;;4917271;29;20369;-46
2022/03/21 04:09:36;;;;;;;19.55;13.13;;;7.10;79.70;;;;;;4916494;29;20028;-46
2022/03/21 04:12:02;;;;;;;16.90;11.50;;;7.00;80.00;;;;;;4917279;29;20400;-44
2022/03/21 04:14:28;;;;;;;17.73;12.45;;;7.10;79.70;;;;;;4917083;29;20024;-46
2022/03/21 04:16:54;;;;;;;17.17;11.07;;;7.00;79.80;;;;;;4916973;29;20024;-45
2022/03/21 04:19:20;;;;;;;19.08;11.52;;;7.00;79.80;;;;;;4917230;29;20490;-46
2022/03/21 04:21:45;;;;;;;16.55;11.98;;;6.90;80.20;;;;;;4917185;29;20035;-45
2022/03/21 04:24:11;;;;;;;17.42;11.65;;;6.90;79.90;;;;;;4916957;29;20489;-45
2022/03/21 04:26:37;;;;;;;19.50;12.05;;;6.90;80.30;;;;;;4917102;29;20026;-48
2022/03/21 04:29:04;;;;;;;20.55;11.32;;;6.90;80.20;;;;;;4917343;29;20088;-45
2022/03/21 04:31:33;;;;;;;16.92;11.07;;;6.80;80.20;;;;;;4917597;29;20103;-45
2022/03/21 04:33:59;;;;;;;17.13;11.50;;;6.80;80.30;;;;;;4918044;29;20449;-48
2022/03/21 04:36:24;;;;;;;16.90;11.73;;;6.80;80.20;;;;;;4916766;29;20028;-46
2022/03/21 04:38:50;;;;;;;17.83;12.95;;;6.90;80.10;;;;;;4916329;29;20054;-49
2022/03/21 04:41:16;;;;;;;17.98;11.25;;;6.80;80.30;;;;;;4916322;29;20075;-46
2022/03/21 04:43:41;;;;;;;16.75;11.57;;;6.80;80.50;;;;;;4916631;29;20028;-51
2022/03/21 04:46:07;;;;;;;20.30;12.25;;;6.80;80.90;;;;;;4916432;29;20024;-42
2022/03/21 04:48:33;;;;;;;17.83;11.50;;;6.70;81.00;;;;;;4916498;29;20111;-49
2022/03/21 04:50:59;;;;;;;18.02;12.52;;;6.70;81.30;;;;;;4915183;29;20028;-47
2022/03/21 04:53:24;;;;;;;21.67;13.45;;;6.60;81.60;;;;;;4916359;29;20035;-48
2022/03/21 04:55:51;;;;;;;18.83;12.38;;;6.60;81.90;;;;;;4916637;29;20043;-47
2022/03/21 04:58:17;;;;;;;21.60;12.07;;;6.50;82.10;;;;;;4915908;29;20130;-49
2022/03/21 05:00:44;;;;;;;16.88;11.30;;;6.40;82.50;;;;;;4915822;29;20043;-48
2022/03/21 05:03:09;;;;;;;16.88;11.35;;;6.30;82.90;;;;;;4916130;29;20027;-49
2022/03/21 05:05:35;;;;;;;18.25;12.27;;;6.30;83.10;;;;;;4916068;29;20480;-44
2022/03/21 05:08:02;;;;;;;19.85;13.35;;;6.20;83.40;;;;;;4914119;29;20028;-46
2022/03/21 05:10:28;;;;;;;18.25;11.73;;;6.20;83.50;;;;;;4916161;29;20032;-46
2022/03/21 05:12:54;;;;;;;17.27;12.02;;;6.10;83.70;;;;;;4914674;29;20134;-48
2022/03/21 05:15:19;;;;;;;16.40;10.85;;;6.10;83.90;;;;;;4915908;29;20511;-49
2022/03/21 05:17:46;;;;;;;15.00;11.35;;;6.10;84.10;;;;;;4915559;29;20028;-47
2022/03/21 05:20:15;;;;;;;19.52;12.68;;;6.10;84.30;;;;;;4914391;29;20032;-46
2022/03/21 05:22:41;;;;;;;20.77;11.73;;;6.00;84.60;;;;;;4915843;29;20027;-50
2022/03/21 05:36:03;;;;;;;17.50;11.20;;;5.90;84.80;;;;;;4915845;29;20035;-48
2022/03/21 05:38:30;;;;;;;16.08;10.85;;;5.90;85.10;;;;;;4915476;29;20028;-47
2022/03/21 05:41:01;;;;;;;19.58;12.18;;;6.00;85.10;;;;;;4915453;29;20056;-49
2022/03/21 05:43:27;;;;;;;18.13;13.15;;;6.00;84.70;;;;;;4915539;29;20020;-48
2022/03/21 05:45:54;;;;;;;21.38;12.57;;;6.10;84.30;;;;;;4915694;29;20461;-48
2022/03/21 05:51:04;;;;;;;18.80;12.50;;;6.20;83.70;;;;;;4915915;29;20040;-45
2022/03/21 05:53:30;;;;;;;15.90;11.05;;;6.30;83.20;;;;;;4914218;29;20491;-46
2022/03/21 05:55:58;;;;;;;20.88;12.05;;;6.40;82.80;;;;;;4915619;29;20071;-46
2022/03/21 05:58:24;;;;;;;16.83;11.95;;;6.50;82.80;;;;;;4915318;29;20028;-45
2022/03/21 06:00:49;;;;;;;18.05;12.52;;;6.40;82.70;;;;;;4915367;29;20476;-47
2022/03/21 06:03:15;;;;;;;18.63;12.52;;;6.50;82.60;;;;;;4915483;29;20048;-46
2022/03/21 06:05:40;;;;;;;17.02;12.35;;;6.60;82.20;;;;;;4915338;29;20078;-48
2022/03/21 06:08:08;;;;;;;18.85;12.52;;;6.80;81.80;;;;;;4914406;29;20024;-48
2022/03/21 06:10:34;;;;;;;16.15;11.98;;;6.80;81.40;;;;;;4915457;29;20033;-50
2022/03/21 06:13:01;;;;;;;18.02;12.18;;;7.00;81.20;;;;;;4919066;29;20063;-49
2022/03/21 06:15:27;;;;;;;25.23;12.20;;;7.00;81.10;;;;;;4919269;29;20035;-45
2022/03/21 06:17:57;;;;;;;16.58;11.60;;;7.10;81.10;;;;;;4918924;29;20032;-46
2022/03/21 06:20:22;;;;;;;21.27;12.45;;;7.20;80.80;;;;;;4919472;29;20033;-45
2022/03/21 06:22:48;;;;;;;20.45;12.27;;;7.40;80.10;;;;;;4919360;29;20434;-49
2022/03/21 06:25:14;;;;;;;18.40;12.00;;;7.60;79.50;;;;;;4919290;29;20396;-45
2022/03/21 06:27:40;;;;;;;15.90;12.40;;;7.70;79.50;;;;;;4918613;29;20381;-47
2022/03/21 06:30:07;;;;;;;19.92;12.43;;;7.80;78.60;;;;;;4919125;29;20055;-46
2022/03/21 06:32:33;;;;;;;21.10;12.73;;;7.90;78.20;;;;;;4918759;29;20480;-44
2022/03/21 06:34:59;;;;;;;27.08;12.38;;;7.90;78.50;;;;;;4918885;29;20040;-48
2022/03/21 06:37:24;;;;;;;20.58;11.38;;;7.90;78.30;;;;;;4918458;29;20032;-49
2022/03/21 06:39:50;;;;;;;17.02;11.32;;;7.80;78.50;;;;;;4918646;29;20028;-46
2022/03/21 06:42:17;;;;;;;21.63;12.68;;;8.10;78.30;;;;;;4918870;29;20028;-48
2022/03/21 06:44:43;;;;;;;19.23;11.63;;;8.20;77.30;;;;;;4918584;29;20023;-41
2022/03/21 06:47:09;;;;;;;19.67;12.05;;;8.40;77.20;;;;;;4917025;29;20051;-47
2022/03/21 06:49:35;;;;;;;17.90;12.02;;;8.50;77.40;;;;;;4918465;29;20040;-46
2022/03/21 06:52:06;;;;;;;18.58;12.60;;;8.80;76.10;;;;;;4918494;29;20540;-51
2022/03/21 06:54:32;;;;;;;19.83;12.65;;;9.00;75.70;;;;;;4918509;29;20067;-47
2022/03/21 06:56:58;;;;;;;24.55;12.30;;;9.00;75.40;;;;;;4918131;29;20107;-45
2022/03/21 06:59:24;;;;;;;21.60;12.07;;;9.00;76.30;;;;;;4918269;29;20079;-47
2022/03/21 07:01:49;;;;;;;17.55;12.30;;;9.10;75.00;;;;;;4918498;29;20127;-50
2022/03/21 07:04:15;;;;;;;18.10;11.30;;;9.30;75.50;;;;;;4918478;29;20035;-47
2022/03/21 07:06:40;;;;;;;18.65;12.35;;;9.50;74.10;;;;;;4917977;29;20048;-46
2022/03/21 07:09:06;;;;;;;19.83;12.68;;;9.90;72.80;;;;;;4917573;29;20032;-45
2022/03/21 07:11:34;;;;;;;16.77;11.55;;;10.10;72.90;;;;;;4918098;29;20033;-46
2022/03/21 07:14:00;;;;;;;22.52;12.18;;;10.30;72.00;;;;;;4918027;29;20016;-44
2022/03/21 07:16:26;;;;;;;19.38;12.07;;;10.60;71.00;;;;;;4918087;29;20118;-48
2022/03/21 07:18:51;;;;;;;14.77;11.38;;;10.80;71.00;;;;;;4917697;29;20107;-43
2022/03/21 07:21:17;;;;;;;19.40;12.20;;;11.10;69.20;;;;;;4917923;29;20028;-45
2022/03/21 07:23:43;;;;;;;24.50;12.73;;;11.30;69.30;;;;;;4917306;29;20465;-46
2022/03/21 07:26:10;;;;;;;18.88;10.82;;;11.60;68.40;;;;;;4917787;29;20381;-47
2022/03/21 07:28:36;;;;;;;17.15;11.40;;;11.80;67.60;;;;;;4917384;29;20024;-44
2022/03/21 07:31:01;;;;;;;16.05;11.60;;;11.70;67.80;;;;;;4917749;29;20032;-44
2022/03/21 07:33:27;;;;;;;17.40;12.10;;;11.80;68.70;;;;;;4917621;29;20028;-44
2022/03/21 07:35:53;;;;;;;16.50;11.93;;;12.00;67.60;;;;;;4917514;29;20028;-46
2022/03/21 07:38:19;;;;;;;19.38;12.55;;;12.10;67.90;;;;;;4917268;29;20032;-45
2022/03/21 07:40:46;;;;;;;16.73;11.10;;;12.30;66.90;;;;;;4917478;29;20057;-43
2022/03/21 07:43:12;;;;;;;17.15;11.63;;;12.40;66.90;;;;;;4917531;29;20024;-48
2022/03/21 07:48:23;;;;;;;16.58;11.95;;;12.40;66.50;;;;;;4917671;29;20039;-45
2022/03/21 07:50:48;;;;;;;22.95;12.65;;;12.70;66.20;;;;;;4915921;29;20025;-45
2022/03/21 07:53:14;;;;;;;17.58;11.63;;;12.90;65.40;;;;;;4917172;29;20058;-44
2022/03/21 07:55:39;;;;;;;20.08;11.75;;;13.20;65.70;;;;;;4917554;29;20021;-46
2022/03/21 07:58:05;;;;;;;17.80;12.27;;;13.70;63.70;;;;;;4916824;29;20036;-48
2022/03/21 08:00:31;;;;;;;18.67;12.80;;;13.50;63.20;;;;;;4917248;29;20107;-45
2022/03/21 08:02:58;;;;;;;16.33;11.50;;;13.10;64.80;;;;;;4915918;29;20061;-49
2022/03/21 08:05:24;;;;;;;18.67;12.15;;;12.60;65.50;;;;;;4917109;29;20032;-46
2022/03/21 08:07:51;;;;;;;24.60;12.82;;;12.10;65.90;;;;;;4916231;29;20027;-47
2022/03/21 08:10:18;;;;;;;15.95;12.07;;;11.60;67.60;;;;;;4916955;29;20060;-46
2022/03/21 08:12:47;;;;;;;16.42;11.77;;;11.30;69.00;;;;;;4917201;29;20408;-44
2022/03/21 08:15:14;;;;;;;17.38;11.60;;;11.20;70.00;;;;;;4916925;29;20028;-45
2022/03/21 08:17:57;;;;;;;17.83;11.93;;;11.00;70.60;;;;;;4915236;29;20031;-47
2022/03/21 08:20:24;;;;;;;17.63;12.55;;;10.90;71.00;;;;;;4917010;29;20030;-44
2022/03/21 08:22:52;;;;;;;17.00;12.15;;;10.80;71.40;;;;;;4915463;29;20024;-44
2022/03/21 08:25:20;;;;;;;18.42;11.73;;;10.80;71.50;;;;;;4916771;29;20020;-45
2022/03/21 08:27:46;;;;;;;17.15;12.38;;;10.80;70.90;;;;;;4916365;29;20027;-42
2022/03/21 08:30:15;;;;;;;20.02;12.95;;;10.90;70.30;;;;;;4916686;29;20464;-46
2022/03/21 08:32:41;;;;;;;16.50;12.02;;;10.90;70.90;;;;;;4916793;29;20023;-47
2022/03/21 08:35:08;;;;;;;22.60;12.90;;;10.90;70.90;;;;;;4916039;29;20036;-48
2022/03/21 08:37:33;;;;;;;14.55;11.70;;;10.90;70.40;;;;;;4916262;29;20068;-44
2022/03/21 08:39:59;;;;;;;14.32;11.70;;;11.00;71.40;;;;;;4916281;29;20032;-45
2022/03/21 08:42:24;;;;;;;20.42;12.93;;;11.00;71.90;;;;;;4915239;29;20024;-45
2022/03/21 08:44:50;;;;;;;16.63;12.20;;;11.00;71.20;;;;;;4916303;29;20024;-46
2022/03/21 08:47:15;;;;;;;19.20;12.77;;;11.10;70.70;;;;;;4916534;29;20034;-44
2022/03/21 08:49:40;;;;;;;18.70;11.95;;;11.20;71.00;;;;;;4916218;29;20399;-46
2022/03/21 08:52:06;;;;;;;20.55;13.07;;;11.20;70.40;;;;;;4916294;29;20036;-45
2022/03/21 08:54:32;;;;;;;19.05;11.70;;;11.20;70.60;;;;;;4916145;29;20030;-44
2022/03/21 08:57:04;;;;;;;26.85;12.32;;;11.30;69.60;;;;;;5109129;27;20846;-44
2022/03/21 08:59:30;;;;;;;21.27;12.30;;;11.50;69.30;;;;;;5122678;22;20066;-47
2022/03/21 09:01:56;;;;;;;17.20;12.85;;;11.60;69.10;;;;;;5087807;28;20409;-44
2022/03/21 09:04:22;;;;;;;25.30;13.27;;;11.60;70.10;;;;;;5089146;28;20027;-46
2022/03/21 09:06:48;;;;;;;22.38;13.27;;;12.20;69.40;;;;;;5088944;28;20028;-45
2022/03/21 09:09:15;;;;;;;19.17;12.98;;;13.30;67.30;;;;;;5095517;28;20173;-44
2022/03/21 09:11:41;;;;;;;18.80;13.57;;;14.60;65.30;;;;;;5109185;28;20487;-48
2022/03/21 09:14:08;;;;;;;17.45;13.43;;;15.90;61.60;;;;;;5109234;28;20038;-49
2022/03/21 09:16:34;;;;;;;27.88;13.27;;;16.80;59.30;;;;;;5109113;28;20024;-45
2022/03/21 09:18:59;;;;;;;18.13;12.77;;;17.60;57.90;;;;;;5109006;28;20092;-46
2022/03/21 09:21:25;;;;;;;17.35;12.60;;;18.10;56.00;;;;;;5109180;28;20493;-48
2022/03/21 09:23:51;;;;;;;15.48;11.98;;;19.10;55.10;;;;;;5108964;28;20036;-50
2022/03/21 09:26:16;;;;;;;17.33;12.20;;;19.60;54.50;;;;;;5108571;28;20034;-43
2022/03/21 09:28:43;;;;;;;16.20;13.30;;;19.70;53.00;;;;;;5108476;28;20056;-44
2022/03/21 09:31:10;;;;;;;15.65;12.68;;;19.40;52.20;;;;;;5108885;28;20501;-52
2022/03/21 09:33:36;;;;;;;13.35;11.10;;;20.00;52.70;;;;;;5108928;28;20034;-48
2022/03/21 09:36:05;;;;;;;18.33;12.27;;;20.10;51.30;;;;;;5090526;28;20028;-49
2022/03/21 09:38:31;;;;;;;16.52;13.13;;;20.20;50.90;;;;;;5108467;28;20058;-46
2022/03/21 09:40:57;;;;;;;14.70;12.13;;;20.00;50.20;;;;;;5108784;28;20051;-43
2022/03/21 09:43:26;;;;;;;17.05;12.35;;;19.30;50.20;;;;;;5108563;28;20016;-45
2022/03/21 09:45:55;;;;;;;20.17;14.13;;;19.10;51.00;;;;;;5108682;28;20036;-51
2022/03/21 09:48:22;;;;;;;19.27;13.43;;;18.70;51.20;;;;;;5108525;28;20036;-49
2022/03/21 09:50:51;;;;;;;16.90;13.65;;;18.30;52.40;;;;;;5108968;28;20495;-48
2022/03/21 09:53:17;;;;;;;17.63;14.65;;;18.10;51.60;;;;;;5108313;28;20028;-51
2022/03/21 09:55:43;;;;;;;19.67;13.40;;;18.10;51.00;;;;;;5108228;28;20035;-47
2022/03/21 09:58:11;;;;;;;19.58;13.60;;;17.90;52.00;;;;;;5108058;28;20028;-46
2022/03/21 10:00:41;;;;;;;23.00;14.13;;;17.80;52.50;;;;;;5108173;28;20036;-46
2022/03/21 10:03:08;;;;;;;19.38;14.45;;;18.00;53.10;;;;;;5108036;28;20016;-45
2022/03/21 10:05:39;;;;;;;17.48;13.80;;;17.90;51.90;;;;;;5108625;28;20024;-46
2022/03/21 10:08:19;;;;;;;22.02;14.40;;;17.70;52.70;;;;;;5095830;28;20429;-45
2022/03/21 10:10:58;;;;;;;17.95;13.55;;;17.40;52.70;;;;;;5094482;28;20242;-45
2022/03/21 10:13:43;;;;;;;26.00;15.15;;;17.20;53.50;;;;;;5094473;28;20028;-47
2022/03/21 10:16:18;;;;;;;17.60;14.07;;;17.10;53.10;;;;;;5094526;28;20028;-46
2022/03/21 10:18:52;;;;;;;21.83;15.02;;;17.10;53.70;;;;;;5094114;28;20020;-43
2022/03/21 10:21:19;;;;;;;21.75;14.70;;;16.90;53.70;;;;;;5094524;28;20016;-47
2022/03/21 10:23:56;;;;;;;20.20;14.73;;;16.80;54.40;;;;;;5094481;28;20513;-49
2022/03/21 10:26:32;;;;;;;18.33;14.05;;;17.10;54.10;;;;;;5094155;28;20075;-52
2022/03/21 10:29:00;;;;;;;21.00;14.25;;;17.00;54.60;;;;;;5093964;28;20031;-47
2022/03/21 10:31:36;;;;;;;22.48;14.48;;;17.00;54.10;;;;;;5094111;28;20024;-46
2022/03/21 10:34:06;;;;;;;22.73;14.70;;;17.00;54.80;;;;;;5094173;28;20024;-45
2022/03/21 10:36:31;;;;;;;21.58;14.80;;;17.00;56.20;;;;;;5093875;28;20024;-49
2022/03/21 10:39:11;;;;;;;20.80;14.20;;;17.00;55.10;;;;;;5093548;28;20578;-48
2022/03/21 10:41:38;;;;;;;24.42;15.15;;;17.10;56.00;;;;;;5093959;28;20034;-53
2022/03/21 10:44:04;;;;;;;19.60;14.48;;;16.80;56.30;;;;;;5093852;28;20020;-47
2022/03/21 10:46:30;;;;;;;21.75;14.43;;;16.80;57.10;;;;;;5093800;28;20376;-44
2022/03/21 10:49:05;;;;;;;18.83;14.55;;;16.70;57.20;;;;;;5093593;28;20031;-46
2022/03/21 10:52:06;;;;;;;23.02;14.27;;;16.60;56.90;;;;;;5093777;28;20027;-50
2022/03/21 10:54:42;;;;;;;21.23;14.40;;;16.40;56.90;;;;;;5011483;28;20112;-47
2022/03/21 10:57:31;;;;;;;23.02;15.05;;;16.40;57.30;;;;;;5081964;28;20036;-47
2022/03/21 11:00:12;;;;;;;22.67;14.52;;;16.40;57.40;;;;;;5093306;28;20020;-46
2022/03/21 11:02:49;;;;;;;19.40;14.32;;;16.40;58.00;;;;;;5093453;28;20487;-50
2022/03/21 11:05:16;;;;;;;22.27;14.70;;;16.40;57.60;;;;;;5093614;28;20554;-47
2022/03/21 11:07:42;;;;;;;22.17;14.18;;;16.40;58.10;;;;;;5093315;28;20118;-43
2022/03/21 11:10:08;;;;;;;20.98;15.05;;;16.30;57.50;;;;;;5093481;28;20428;-52
2022/03/21 11:12:34;;;;;;;21.55;14.23;;;16.00;57.90;;;;;;5093402;28;20089;-49
2022/03/21 11:15:04;;;;;;;17.70;13.65;;;16.00;58.50;;;;;;5093217;28;21906;-46
2022/03/21 11:17:32;;;;;;;20.90;14.90;;;16.10;59.10;;;;;;5093095;28;20020;-50
2022/03/21 11:19:59;;;;;;;21.00;13.88;;;16.10;59.40;;;;;;5092020;28;20031;-45
2022/03/21 11:22:25;;;;;;;19.67;14.85;;;16.20;59.40;;;;;;5092990;28;20024;-47
2022/03/21 11:24:51;;;;;;;23.75;15.57;;;16.20;58.80;;;;;;5093109;28;20024;-50
2022/03/21 11:28:02;;;;;;;21.27;14.60;;;16.20;58.70;;;;;;5092668;28;20020;-48
2022/03/21 11:30:46;;;;;;;30.05;15.48;;;16.20;58.80;;;;;;5061539;28;20028;-44
2022/03/21 11:33:32;;;;;;;23.30;16.55;;;16.20;59.40;;;;;;5092989;28;20020;-43
2022/03/21 11:35:59;;;;;;;;;;;16.10;58.60;;;;;;5093351;28;20024;-46
2022/03/21 11:38:27;;;;;;;26.58;16.40;;;16.10;58.80;;;;;;5092633;28;20065;-43
2022/03/21 11:41:10;;;;;;;28.60;18.73;;;16.10;60.60;;;;;;5092827;28;20099;-44
2022/03/21 11:43:37;;;;;;;54.85;35.95;;;16.10;59.80;;;;;;5092757;28;20107;-46
2022/03/21 11:46:29;;;;;;;23.73;17.33;;;16.00;59.30;;;;;;5092681;28;20024;-45
2022/03/21 11:49:14;;;;;;;25.58;16.05;;;16.00;59.20;;;;;;5088622;28;20066;-46
2022/03/21 11:51:41;;;;;;;22.42;15.40;;;16.00;59.40;;;;;;5092533;28;20035;-48
2022/03/21 11:54:29;;;;;;;22.73;15.68;;;15.90;59.60;;;;;;5092565;28;20149;-46
2022/03/21 11:57:07;;;;;;;20.75;14.70;;;15.90;60.00;;;;;;5092118;28;20395;-45
2022/03/21 11:59:32;;;;;;;31.63;16.80;;;15.80;59.80;;;;;;5091883;28;20106;-43
2022/03/21 12:02:25;;;;;;;23.92;15.80;;;15.70;59.80;;;;;;5092002;28;20137;-47
2022/03/21 12:05:09;;;;;;;20.52;14.82;;;15.60;60.20;;;;;;5092128;28;20023;-44
2022/03/21 12:07:38;;;;;;;22.15;15.52;;;15.60;61.50;;;;;;5091599;28;20028;-43
2022/03/21 12:10:03;;;;;;;21.55;15.18;;;15.60;62.00;;;;;;5092208;28;20451;-45
2022/03/21 12:12:40;;;;;;;21.48;16.58;;;15.60;61.40;;;;;;5092424;28;20052;-46
2022/03/21 12:15:31;;;;;;;28.73;16.40;;;15.70;60.90;;;;;;5092345;28;20036;-45
2022/03/21 12:17:57;;;;;;;29.15;17.75;;;15.90;61.00;;;;;;5092587;28;20024;-50
2022/03/21 12:20:23;;;;;;;25.67;15.10;;;15.90;60.50;;;;;;5092045;28;20023;-50
2022/03/21 12:22:50;;;;;;;29.48;16.90;;;15.70;60.80;;;;;;5091645;28;20024;-52
2022/03/21 12:25:30;;;;;;;24.45;15.60;;;15.60;61.10;;;;;;5092178;28;20028;-47
2022/03/21 12:31:26;;;;;;;22.80;16.02;;;15.60;62.60;;;;;;5091606;28;20406;-48
2022/03/21 12:33:51;;;;;;;31.30;15.57;;;15.60;62.70;;;;;;5092163;28;20518;-52
2022/03/21 12:36:32;;;;;;;22.50;15.80;;;15.60;62.30;;;;;;5091421;28;20059;-45
2022/03/21 12:38:58;;;;;;;24.20;16.63;;;15.70;62.20;;;;;;5091376;28;20020;-47
2022/03/21 12:41:32;;;;;;;24.33;16.40;;;15.90;61.90;;;;;;5092024;28;20161;-47
2022/03/21 12:43:57;;;;;;;25.70;15.57;;;16.00;62.20;;;;;;5091829;28;20024;-45
2022/03/21 12:46:24;;;;;;;28.90;16.25;;;15.90;61.30;;;;;;5091688;28;20344;-47
2022/03/21 12:48:55;;;;;;;25.95;15.93;;;16.00;61.70;;;;;;5091298;28;20055;-46
2022/03/21 12:51:35;;;;;;;28.25;16.58;;;16.00;61.40;;;;;;5091706;28;20118;-49
2022/03/21 12:54:04;;;;;;;25.05;16.50;;;16.00;61.90;;;;;;5091705;28;20024;-46
2022/03/21 12:56:31;;;;;;;24.60;15.38;;;16.00;61.90;;;;;;5091363;28;20423;-42
2022/03/21 12:59:04;;;;;;;22.45;14.63;;;16.00;62.20;;;;;;5091013;28;20490;-50
2022/03/21 13:01:32;;;;;;;19.35;14.20;;;16.00;61.90;;;;;;5091570;28;20508;-46